Time;durP1;ratioP1;P1;durP2;ratioP2;P2;SDS_P1;SDS_P2;PMS_P1;PMS_P2;Temp;Humidity;BMP_temperature;BMP_pressure;BME280_temperature;BME280_humidity;BME280_pressure;Samples;Min_cycle;Max_cycle;Signal;HPM_P1;HPM_P2
2022/03/23 00:00:11;;;;;;;6.43;1.50;;;31.30;17.90;;;;;;4950338;29;20074;-66
2022/03/23 00:02:38;;;;;;;28.58;2.20;;;31.30;18.10;;;;;;4942322;28;20488;-64
2022/03/23 00:05:05;;;;;;;5.82;0.98;;;31.30;18.10;;;;;;4961916;28;20423;-62
2022/03/23 00:07:33;;;;;;;4.03;0.80;;;31.30;18.00;;;;;;4946334;29;20110;-67
2022/03/23 00:09:59;;;;;;;150.43;8.80;;;31.20;18.20;;;;;;4961958;28;20157;-66
2022/03/23 00:12:25;;;;;;;5.20;1.02;;;31.10;18.70;;;;;;4955982;28;20094;-64
2022/03/23 00:14:53;;;;;;;10.85;1.00;;;31.10;18.60;;;;;;4949302;28;20129;-66
2022/03/23 00:17:19;;;;;;;2.13;0.95;;;31.00;18.50;;;;;;4948487;29;20502;-60
2022/03/23 00:19:45;;;;;;;5.05;1.00;;;30.90;18.40;;;;;;4949608;28;20193;-65
2022/03/23 00:22:12;;;;;;;3.85;0.90;;;30.80;18.50;;;;;;4949715;29;20079;-63
2022/03/23 00:24:39;;;;;;;5.10;0.93;;;30.70;18.70;;;;;;4949996;29;20075;-64
2022/03/23 00:27:06;;;;;;;2.10;0.70;;;30.60;18.70;;;;;;4964518;28;20118;-63
2022/03/23 00:29:32;;;;;;;3.60;1.20;;;30.60;18.60;;;;;;4949864;28;20129;-63
2022/03/23 00:31:58;;;;;;;3.72;0.82;;;30.60;18.60;;;;;;4949158;29;20071;-64
2022/03/23 00:34:25;;;;;;;6.57;0.95;;;30.60;18.60;;;;;;4949971;28;20094;-63
2022/03/23 00:36:51;;;;;;;1.90;0.80;;;30.50;18.50;;;;;;4949085;29;20166;-67
2022/03/23 00:39:20;;;;;;;1.90;0.80;;;30.40;18.60;;;;;;4964395;28;20501;-62
2022/03/23 00:41:49;;;;;;;3.70;0.80;;;30.30;18.60;;;;;;4948318;29;20985;-67
2022/03/23 00:44:16;;;;;;;4.95;1.13;;;30.20;18.50;;;;;;4948586;28;20083;-66
2022/03/23 00:46:42;;;;;;;4.03;1.02;;;30.10;18.60;;;;;;4950303;28;20070;-63
2022/03/23 00:49:09;;;;;;;6.93;1.10;;;30.00;18.60;;;;;;4953319;29;20167;-63
2022/03/23 00:51:36;;;;;;;1.73;0.80;;;29.90;18.60;;;;;;4953475;28;20095;-64
2022/03/23 00:54:02;;;;;;;1.88;0.82;;;29.80;18.70;;;;;;4951430;28;20114;-64
2022/03/23 00:56:29;;;;;;;2.10;0.77;;;29.80;18.90;;;;;;4936109;29;20112;-63
2022/03/23 00:58:56;;;;;;;5.82;1.00;;;30.00;18.90;;;;;;4957235;28;21458;-63
2022/03/23 01:01:22;;;;;;;5.07;1.35;;;30.10;18.60;;;;;;4953295;28;20111;-65
2022/03/23 01:03:49;;;;;;;4.78;1.00;;;30.10;18.50;;;;;;4936262;29;20110;-62
2022/03/23 01:06:15;;;;;;;8.05;1.30;;;29.90;18.60;;;;;;4952124;29;20533;-65
2022/03/23 01:08:42;;;;;;;7.63;1.25;;;29.70;18.80;;;;;;4968811;28;20094;-63
2022/03/23 01:11:09;;;;;;;4.13;0.90;;;29.60;18.80;;;;;;4952542;28;20147;-65
2022/03/23 01:13:36;;;;;;;11.07;1.35;;;29.40;18.90;;;;;;4952382;29;20106;-66
2022/03/23 01:16:04;;;;;;;5.70;1.10;;;29.40;19.30;;;;;;4952384;28;20165;-63
2022/03/23 01:18:30;;;;;;;4.40;1.00;;;29.30;19.40;;;;;;4955150;28;20071;-62
2022/03/23 01:20:56;;;;;;;10.40;1.05;;;29.10;19.70;;;;;;4954033;28;20079;-64
2022/03/23 01:23:23;;;;;;;11.10;1.35;;;29.00;19.90;;;;;;4951522;29;20083;-68
2022/03/23 01:25:49;;;;;;;7.57;1.20;;;28.90;20.80;;;;;;4951309;29;20079;-63
2022/03/23 01:28:16;;;;;;;14.02;1.67;;;28.80;22.30;;;;;;4953261;29;20087;-64
2022/03/23 01:30:42;;;;;;;8.60;1.45;;;28.60;22.70;;;;;;4952933;28;20502;-63
2022/03/23 01:33:09;;;;;;;7.70;1.58;;;28.40;22.50;;;;;;4952355;28;20126;-63
2022/03/23 01:35:35;;;;;;;6.30;1.10;;;28.20;24.70;;;;;;4952540;28;20090;-64
2022/03/23 01:38:02;;;;;;;6.30;1.02;;;28.10;22.70;;;;;;4947593;28;20086;-63
2022/03/23 01:40:28;;;;;;;9.48;1.10;;;28.00;22.60;;;;;;4952396;28;20109;-63
2022/03/23 01:42:55;;;;;;;3.92;1.23;;;27.90;23.60;;;;;;4951615;28;20606;-66
2022/03/23 01:45:21;;;;;;;4.47;0.93;;;27.70;23.30;;;;;;4951293;28;20082;-64
2022/03/23 01:47:47;;;;;;;7.85;1.35;;;27.60;22.90;;;;;;4951174;29;20526;-62
2022/03/23 01:50:14;;;;;;;7.00;1.20;;;27.60;22.70;;;;;;4952413;28;20185;-61
2022/03/23 01:52:40;;;;;;;8.45;1.40;;;27.40;23.30;;;;;;4951959;28;20102;-65
2022/03/23 01:55:11;;;;;;;6.90;1.90;;;27.30;24.30;;;;;;4951795;29;20079;-63
2022/03/23 01:57:40;;;;;;;10.52;1.90;;;27.20;24.10;;;;;;4937573;28;20104;-62
2022/03/23 02:00:07;;;;;;;7.20;1.60;;;27.10;24.10;;;;;;4949303;29;20489;-63
2022/03/23 02:02:34;;;;;;;12.30;1.95;;;27.00;23.60;;;;;;4952633;28;20075;-65
2022/03/23 02:05:02;;;;;;;15.93;1.80;;;27.00;23.80;;;;;;4950537;28;20152;-64
2022/03/23 02:07:30;;;;;;;10.18;1.92;;;26.90;24.20;;;;;;4964195;28;20106;-63
2022/03/23 02:09:56;;;;;;;8.55;2.50;;;26.80;24.20;;;;;;4951288;28;20099;-64
2022/03/23 02:12:23;;;;;;;16.45;2.35;;;26.70;24.60;;;;;;4952881;28;20141;-64
2022/03/23 02:14:50;;;;;;;17.92;2.55;;;26.70;25.40;;;;;;4951418;28;20615;-65
2022/03/23 02:17:16;;;;;;;12.00;1.90;;;26.60;24.40;;;;;;4950049;29;20083;-64
2022/03/23 02:19:42;;;;;;;20.85;2.42;;;26.50;24.50;;;;;;4951453;29;20083;-66
2022/03/23 02:22:09;;;;;;;17.15;2.78;;;26.40;24.40;;;;;;4967013;28;20080;-60
2022/03/23 02:24:35;;;;;;;12.13;2.35;;;26.30;24.50;;;;;;4950528;28;20473;-63
2022/03/23 02:27:02;;;;;;;15.77;2.65;;;26.30;25.00;;;;;;4951367;28;20086;-64
2022/03/23 02:29:31;;;;;;;13.13;2.90;;;26.20;24.80;;;;;;4950997;29;20074;-64
2022/03/23 02:32:01;;;;;;;16.00;3.22;;;26.20;24.80;;;;;;4951500;29;20075;-63
2022/03/23 02:34:28;;;;;;;19.65;4.72;;;26.10;24.40;;;;;;4951254;29;20064;-62
2022/03/23 02:36:55;;;;;;;21.98;6.13;;;26.00;24.30;;;;;;4966403;28;20555;-64
2022/03/23 02:39:21;;;;;;;20.08;6.22;;;26.00;24.70;;;;;;4950100;28;20531;-64
2022/03/23 02:41:48;;;;;;;17.98;6.43;;;25.90;24.50;;;;;;4951191;28;20102;-63
2022/03/23 02:44:16;;;;;;;21.08;6.63;;;25.90;24.60;;;;;;4943074;29;20546;-65
2022/03/23 02:46:43;;;;;;;19.73;7.40;;;25.80;24.40;;;;;;4947519;28;20475;-63
2022/03/23 02:49:10;;;;;;;17.58;6.68;;;25.80;24.90;;;;;;4951690;28;20103;-61
2022/03/23 02:51:37;;;;;;;21.80;5.97;;;25.70;24.80;;;;;;4966781;28;20072;-62
2022/03/23 03:03:10;;;;;;;20.40;4.38;;;25.50;25.00;;;;;;4953387;28;20085;-63
2022/03/23 03:05:36;;;;;;;16.40;4.32;;;25.40;24.90;;;;;;4950167;29;20123;-63
2022/03/23 03:10:47;;;;;;;20.48;4.30;;;25.30;25.10;;;;;;4951308;29;20125;-63
2022/03/23 03:13:13;;;;;;;27.08;4.25;;;25.30;25.40;;;;;;4949790;29;20076;-63
2022/03/23 03:15:40;;;;;;;19.35;4.32;;;25.20;25.50;;;;;;4949532;28;20083;-64
2022/03/23 03:18:06;;;;;;;19.95;5.15;;;25.20;25.60;;;;;;4950456;28;20072;-64
2022/03/23 03:20:33;;;;;;;21.92;4.28;;;25.20;25.60;;;;;;4965301;28;20127;-63
2022/03/23 03:23:00;;;;;;;27.98;5.40;;;25.10;25.60;;;;;;4949124;29;20083;-65
2022/03/23 03:25:26;;;;;;;20.17;5.20;;;25.00;25.50;;;;;;4949756;28;20095;-59
2022/03/23 03:27:52;;;;;;;24.17;5.35;;;25.00;25.80;;;;;;4951466;29;20106;-62
2022/03/23 03:30:20;;;;;;;18.38;5.70;;;24.90;25.80;;;;;;4950392;29;20125;-63
2022/03/23 03:32:47;;;;;;;20.00;5.05;;;24.90;25.90;;;;;;4949104;28;20078;-61
2022/03/23 03:35:14;;;;;;;22.42;5.00;;;24.80;25.90;;;;;;4942875;28;20097;-60
2022/03/23 03:37:42;;;;;;;18.05;4.43;;;24.80;26.10;;;;;;4950495;28;20083;-62
2022/03/23 03:40:09;;;;;;;18.38;4.32;;;24.70;26.10;;;;;;4950064;29;20075;-60
2022/03/23 03:42:36;;;;;;;18.60;4.50;;;24.70;26.70;;;;;;4966053;28;20091;-61
2022/03/23 03:45:05;;;;;;;16.08;4.00;;;24.60;26.80;;;;;;4951402;29;20555;-62
2022/03/23 03:47:35;;;;;;;14.45;3.40;;;24.50;26.50;;;;;;4965574;28;20099;-63
2022/03/23 03:50:01;;;;;;;20.63;3.67;;;24.40;26.60;;;;;;4951051;29;20072;-59
2022/03/23 03:52:27;;;;;;;13.65;2.90;;;24.30;26.80;;;;;;4954619;28;20179;-64
2022/03/23 03:54:54;;;;;;;14.43;2.80;;;24.20;26.80;;;;;;4951884;28;20122;-61
2022/03/23 03:57:20;;;;;;;11.77;2.45;;;24.20;27.10;;;;;;4975847;23;20597;-62
2022/03/23 03:59:47;;;;;;;18.63;3.55;;;24.10;27.30;;;;;;4962958;28;20076;-66
2022/03/23 04:02:14;;;;;;;17.08;2.55;;;24.10;26.80;;;;;;4964414;28;20098;-64
2022/03/23 04:04:40;;;;;;;10.77;2.33;;;24.00;27.20;;;;;;4968834;28;20099;-61
2022/03/23 04:07:07;;;;;;;11.48;2.72;;;24.00;27.10;;;;;;4974619;28;20183;-59
2022/03/23 04:09:33;;;;;;;18.65;2.50;;;23.90;27.40;;;;;;4979157;28;20102;-65
2022/03/23 04:12:00;;;;;;;12.07;2.15;;;23.90;26.90;;;;;;4975133;28;20098;-59
2022/03/23 04:14:26;;;;;;;14.02;2.53;;;23.80;27.10;;;;;;4961046;28;20076;-63
2022/03/23 04:16:53;;;;;;;12.85;2.75;;;23.80;26.70;;;;;;4962638;28;20072;-61
2022/03/23 04:19:19;;;;;;;18.90;2.20;;;23.70;26.80;;;;;;4960198;28;20094;-65
2022/03/23 04:21:45;;;;;;;5.50;1.45;;;23.70;26.70;;;;;;4966352;28;20089;-62
2022/03/23 04:24:12;;;;;;;10.48;1.92;;;23.70;26.50;;;;;;4966206;28;20641;-61
2022/03/23 04:26:38;;;;;;;13.80;2.00;;;23.60;26.70;;;;;;4966198;28;20127;-61
2022/03/23 04:29:06;;;;;;;10.50;1.60;;;23.70;26.70;;;;;;4967669;28;20099;-61
2022/03/23 04:31:32;;;;;;;20.17;2.08;;;23.60;26.40;;;;;;4957511;28;20158;-61
2022/03/23 04:33:59;;;;;;;8.85;1.83;;;23.70;26.30;;;;;;4960649;28;20527;-61
2022/03/23 04:36:25;;;;;;;7.72;1.40;;;23.70;26.30;;;;;;4961694;28;20444;-60
2022/03/23 04:38:51;;;;;;;10.02;1.48;;;23.70;26.20;;;;;;4972910;28;20111;-62
2022/03/23 04:41:18;;;;;;;8.48;1.70;;;23.70;26.30;;;;;;4972079;28;20078;-56
2022/03/23 04:43:44;;;;;;;8.80;1.80;;;23.70;26.30;;;;;;4970478;28;20096;-62
2022/03/23 04:46:12;;;;;;;9.10;2.20;;;23.70;26.40;;;;;;4958709;28;20083;-59
2022/03/23 04:48:39;;;;;;;9.65;1.60;;;23.60;26.40;;;;;;4983790;28;20091;-62
2022/03/23 04:51:05;;;;;;;12.13;2.75;;;23.60;27.10;;;;;;4960695;28;20075;-61
2022/03/23 04:53:32;;;;;;;8.25;3.75;;;23.50;26.60;;;;;;4933161;28;21118;-60
2022/03/23 04:55:58;;;;;;;9.50;2.80;;;23.50;26.60;;;;;;4964440;28;20178;-61
2022/03/23 04:58:25;;;;;;;10.93;2.63;;;23.50;26.60;;;;;;4981517;28;20178;-60
2022/03/23 05:00:51;;;;;;;10.57;2.05;;;23.40;27.00;;;;;;4970979;28;20111;-59
2022/03/23 05:03:18;;;;;;;8.15;2.00;;;23.40;26.80;;;;;;4964127;28;20077;-62
2022/03/23 05:05:44;;;;;;;12.18;4.85;;;23.40;26.40;;;;;;4986888;28;20170;-61
2022/03/23 05:08:10;;;;;;;18.92;3.33;;;23.40;26.50;;;;;;4962536;28;20634;-62
2022/03/23 05:10:37;;;;;;;10.65;2.50;;;23.40;26.70;;;;;;4975666;28;20493;-61
2022/03/23 05:13:03;;;;;;;12.90;2.28;;;23.30;26.60;;;;;;4953268;28;20075;-61
2022/03/23 05:15:30;;;;;;;18.00;2.10;;;23.30;26.20;;;;;;4952205;28;20460;-60
2022/03/23 05:17:56;;;;;;;9.63;1.60;;;23.30;26.10;;;;;;4982943;28;20083;-62
2022/03/23 05:20:23;;;;;;;12.18;1.67;;;23.30;26.30;;;;;;4959844;28;20137;-61
2022/03/23 05:22:50;;;;;;;9.32;1.70;;;23.30;26.30;;;;;;4984874;28;20082;-59
2022/03/23 05:25:16;;;;;;;8.30;1.73;;;23.30;25.70;;;;;;4944184;28;20076;-56
2022/03/23 05:27:43;;;;;;;15.52;1.60;;;23.40;25.60;;;;;;4954605;28;20792;-61
2022/03/23 05:30:11;;;;;;;7.80;1.50;;;23.40;25.20;;;;;;4964633;28;20079;-60
2022/03/23 05:32:43;;;;;;;9.45;1.13;;;23.40;25.40;;;;;;4976654;28;20083;-60
2022/03/23 05:35:11;;;;;;;8.90;1.67;;;23.40;25.10;;;;;;4980845;28;20120;-59
2022/03/23 05:37:38;;;;;;;9.02;1.67;;;23.40;25.00;;;;;;4985845;28;20081;-59
2022/03/23 05:40:05;;;;;;;11.48;1.55;;;23.30;24.90;;;;;;4979249;28;20079;-60
2022/03/23 05:42:32;;;;;;;10.25;1.67;;;23.30;25.00;;;;;;4957130;28;20107;-60
2022/03/23 05:44:59;;;;;;;10.57;1.67;;;23.30;25.20;;;;;;4972766;28;20577;-61
2022/03/23 05:47:25;;;;;;;10.77;1.45;;;23.30;25.10;;;;;;4991156;28;20543;-60
2022/03/23 05:49:52;;;;;;;17.83;1.40;;;23.30;25.20;;;;;;4972868;28;20527;-61
2022/03/23 05:52:18;;;;;;;13.40;1.95;;;23.20;25.00;;;;;;4945345;28;20083;-61
2022/03/23 05:54:45;;;;;;;18.13;2.00;;;23.20;25.10;;;;;;4971228;28;20079;-60
2022/03/23 05:57:11;;;;;;;9.43;1.95;;;23.10;25.20;;;;;;4954793;28;20122;-60
2022/03/23 05:59:38;;;;;;;22.52;2.50;;;23.10;25.00;;;;;;4974282;28;20606;-60
2022/03/23 06:02:04;;;;;;;13.32;2.28;;;23.00;25.40;;;;;;4981395;28;20138;-60
2022/03/23 06:04:30;;;;;;;11.20;2.20;;;23.00;25.50;;;;;;4981286;28;20211;-60
2022/03/23 06:06:57;;;;;;;18.23;2.42;;;23.00;25.30;;;;;;4976439;28;20083;-64
2022/03/23 06:09:23;;;;;;;11.18;1.70;;;22.90;26.50;;;;;;4972299;28;20082;-63
2022/03/23 06:11:49;;;;;;;34.35;3.03;;;22.90;26.60;;;;;;4950313;28;20182;-59
2022/03/23 06:14:16;;;;;;;25.77;2.67;;;22.80;26.30;;;;;;4969876;28;20075;-63
2022/03/23 06:16:42;;;;;;;12.75;2.20;;;22.70;26.30;;;;;;4966328;28;20075;-61
2022/03/23 06:19:10;;;;;;;10.52;1.73;;;22.60;27.00;;;;;;4983725;28;20098;-60
2022/03/23 06:21:36;;;;;;;7.85;1.85;;;22.60;26.80;;;;;;4957714;28;20222;-60
2022/03/23 06:24:03;;;;;;;20.15;2.38;;;22.60;25.60;;;;;;4976532;28;20078;-60
2022/03/23 06:26:29;;;;;;;12.65;2.42;;;22.60;25.60;;;;;;4971268;28;20098;-59
2022/03/23 06:28:56;;;;;;;10.48;1.65;;;22.60;25.40;;;;;;4970907;28;20099;-61
2022/03/23 06:31:22;;;;;;;11.93;1.65;;;22.70;25.60;;;;;;4971958;28;20125;-60
2022/03/23 06:33:49;;;;;;;17.52;1.90;;;22.70;25.30;;;;;;4988802;28;20089;-60
2022/03/23 06:36:15;;;;;;;14.60;2.00;;;22.70;25.10;;;;;;4969360;28;20073;-59
2022/03/23 06:38:42;;;;;;;6.82;1.75;;;22.80;25.00;;;;;;4985802;28;20085;-59
2022/03/23 06:41:08;;;;;;;13.98;1.92;;;22.80;25.90;;;;;;4984876;28;20091;-62
2022/03/23 06:43:35;;;;;;;8.95;2.22;;;22.70;25.60;;;;;;4986259;28;20566;-61
2022/03/23 06:46:02;;;;;;;15.80;2.33;;;22.70;25.10;;;;;;4986710;28;20233;-59
2022/03/23 06:48:29;;;;;;;13.80;1.98;;;22.70;25.50;;;;;;4971557;28;20092;-60
2022/03/23 06:50:55;;;;;;;13.05;3.10;;;22.70;25.60;;;;;;4983162;28;20252;-59
2022/03/23 06:53:21;;;;;;;11.40;2.28;;;22.60;25.20;;;;;;4982404;28;20083;-63
2022/03/23 06:55:48;;;;;;;9.73;2.85;;;22.60;26.30;;;;;;4965790;28;20083;-60
2022/03/23 06:58:14;;;;;;;11.60;2.00;;;22.50;26.40;;;;;;4986977;28;20150;-59
2022/03/23 07:00:41;;;;;;;9.25;1.73;;;22.50;26.40;;;;;;4968174;28;20078;-61
2022/03/23 07:03:08;;;;;;;10.07;2.55;;;22.40;27.10;;;;;;4982987;28;20083;-61
2022/03/23 07:05:36;;;;;;;12.07;2.40;;;22.40;25.80;;;;;;4951688;28;20176;-58
2022/03/23 07:10:49;;;;;;;16.85;2.72;;;22.30;25.90;;;;;;4975293;28;20144;-60
2022/03/23 07:13:15;;;;;;;8.90;1.75;;;22.30;26.40;;;;;;4985686;28;20158;-62
2022/03/23 07:15:42;;;;;;;10.52;2.28;;;22.20;26.50;;;;;;4965439;28;20130;-62
2022/03/23 07:18:10;;;;;;;13.05;2.50;;;22.10;27.00;;;;;;4986797;28;20074;-59
2022/03/23 07:20:36;;;;;;;15.82;2.90;;;22.00;27.40;;;;;;4965215;28;20577;-60
2022/03/23 07:23:03;;;;;;;27.02;2.80;;;22.00;27.90;;;;;;4968275;28;20161;-63
2022/03/23 07:25:29;;;;;;;21.00;3.10;;;21.90;27.20;;;;;;4983880;28;20079;-59
2022/03/23 07:27:56;;;;;;;23.90;3.28;;;21.80;27.80;;;;;;4959135;28;20097;-60
2022/03/23 07:30:23;;;;;;;21.58;3.50;;;21.80;27.80;;;;;;4965621;28;20225;-62
2022/03/23 07:32:51;;;;;;;19.42;4.47;;;21.70;27.70;;;;;;4966294;28;20079;-66
2022/03/23 07:35:17;;;;;;;35.15;4.47;;;21.70;27.50;;;;;;4982094;28;20097;-60
2022/03/23 07:37:44;;;;;;;31.58;4.38;;;21.60;27.70;;;;;;4986669;28;20236;-61
2022/03/23 07:40:11;;;;;;;29.38;5.32;;;21.50;28.30;;;;;;4987654;28;20075;-58
2022/03/23 07:42:37;;;;;;;34.72;5.10;;;21.50;28.40;;;;;;4979140;28;20082;-61
2022/03/23 07:45:05;;;;;;;33.92;6.25;;;21.40;29.00;;;;;;4987713;28;20221;-59
2022/03/23 07:47:31;;;;;;;40.63;6.78;;;21.30;29.10;;;;;;4966492;28;20470;-59
2022/03/23 07:49:58;;;;;;;52.47;9.30;;;21.30;29.50;;;;;;4967204;28;20080;-59
2022/03/23 07:52:24;;;;;;;49.28;9.57;;;21.00;29.20;;;;;;4986039;28;20079;-59
2022/03/23 07:54:52;;;;;;;64.95;11.27;;;21.00;29.60;;;;;;4980247;28;20763;-58
2022/03/23 07:57:18;;;;;;;63.60;11.63;;;21.00;29.80;;;;;;4980690;28;20114;-59
2022/03/23 07:59:46;;;;;;;51.33;11.15;;;21.00;29.90;;;;;;4986204;28;20075;-60
2022/03/23 08:02:13;;;;;;;68.60;12.35;;;20.90;29.90;;;;;;4982102;28;20079;-60
2022/03/23 08:04:39;;;;;;;54.92;11.38;;;20.90;29.50;;;;;;4984505;28;20442;-62
2022/03/23 08:07:07;;;;;;;58.72;11.05;;;20.90;29.70;;;;;;4982942;28;20534;-60
2022/03/23 08:09:34;;;;;;;62.00;12.25;;;20.80;30.20;;;;;;4966246;28;20072;-62
2022/03/23 08:12:00;;;;;;;60.03;12.63;;;20.80;30.00;;;;;;4971724;28;20515;-59
2022/03/23 08:14:27;;;;;;;65.57;12.35;;;20.70;30.40;;;;;;4985165;28;20112;-60
2022/03/23 08:16:54;;;;;;;60.40;12.65;;;20.70;31.00;;;;;;4966795;28;20071;-59
2022/03/23 08:19:24;;;;;;;60.28;12.18;;;20.60;30.50;;;;;;4964683;28;20086;-62
2022/03/23 08:21:51;;;;;;;57.97;11.77;;;20.60;30.70;;;;;;4985893;28;20075;-59
2022/03/23 08:24:18;;;;;;;54.08;12.35;;;20.60;30.60;;;;;;4972237;28;20179;-62
2022/03/23 08:26:45;;;;;;;49.17;11.55;;;20.50;30.30;;;;;;4969910;28;20071;-59
2022/03/23 08:29:12;;;;;;;44.28;11.05;;;20.50;30.50;;;;;;4970914;28;20099;-60
2022/03/23 08:31:39;;;;;;;59.20;11.93;;;20.40;30.30;;;;;;4981897;28;20527;-57
2022/03/23 08:34:05;;;;;;;41.95;10.48;;;20.40;30.60;;;;;;4981980;28;20086;-59
2022/03/23 08:36:32;;;;;;;40.70;10.35;;;20.40;30.00;;;;;;4964051;28;20138;-60
2022/03/23 08:38:59;;;;;;;44.20;10.00;;;20.40;30.30;;;;;;4985230;28;20490;-60
2022/03/23 08:41:27;;;;;;;48.92;11.85;;;20.30;30.00;;;;;;4982528;28;20102;-60
2022/03/23 08:43:54;;;;;;;36.83;9.52;;;20.30;30.20;;;;;;4985634;28;21003;-62
2022/03/23 08:46:21;;;;;;;46.75;10.32;;;20.30;31.00;;;;;;4980981;28;20122;-62
2022/03/23 08:48:49;;;;;;;46.58;10.60;;;20.30;31.10;;;;;;4985650;28;20090;-60
2022/03/23 08:51:16;;;;;;;38.78;10.60;;;20.20;31.10;;;;;;4967780;28;20106;-62
2022/03/23 08:53:42;;;;;;;47.88;9.65;;;20.20;31.20;;;;;;4983015;28;20754;-58
2022/03/23 08:56:12;;;;;;;28.77;9.57;;;20.20;31.40;;;;;;4964407;28;20088;-59
2022/03/23 08:58:47;;;;;;;32.35;10.43;;;20.10;30.80;;;;;;4977035;28;20573;-60
2022/03/23 09:01:15;;;;;;;40.65;9.70;;;20.20;30.90;;;;;;4966776;28;20093;-59
2022/03/23 09:03:43;;;;;;;47.13;10.05;;;20.10;30.90;;;;;;4968429;28;20186;-59
2022/03/23 09:06:10;;;;;;;44.03;9.93;;;20.00;30.80;;;;;;4984165;28;20071;-60
2022/03/23 09:08:37;;;;;;;45.05;9.95;;;19.90;31.40;;;;;;4989479;28;20087;-61
2022/03/23 09:11:04;;;;;;;40.88;9.98;;;19.90;30.90;;;;;;4968258;28;20079;-60
2022/03/23 09:13:31;;;;;;;45.53;9.35;;;19.90;30.80;;;;;;4988719;28;20166;-59
2022/03/23 09:15:57;;;;;;;38.78;9.82;;;19.90;31.20;;;;;;4957592;28;20833;-63
2022/03/23 09:18:26;;;;;;;34.20;9.93;;;19.80;31.80;;;;;;4942225;28;20079;-58
2022/03/23 09:20:53;;;;;;;30.13;9.73;;;19.80;31.70;;;;;;4971703;28;20110;-58
2022/03/23 09:23:20;;;;;;;36.35;9.85;;;19.80;32.30;;;;;;4970148;28;20121;-59
2022/03/23 09:25:49;;;;;;;32.75;9.20;;;19.70;32.10;;;;;;4971406;28;20079;-62
2022/03/23 09:28:15;;;;;;;41.70;9.75;;;19.70;31.60;;;;;;4974830;28;20097;-59
2022/03/23 09:30:42;;;;;;;44.13;10.35;;;19.60;32.30;;;;;;4978922;28;20093;-61
2022/03/23 09:33:09;;;;;;;41.17;10.00;;;19.60;32.40;;;;;;4971054;28;20123;-63
2022/03/23 09:35:35;;;;;;;35.55;9.48;;;19.60;32.90;;;;;;4990319;28;20071;-59
2022/03/23 09:38:04;;;;;;;;;;;19.50;33.20;;;;;;4989761;28;20089;-59
2022/03/23 09:40:32;;;;;;;33.38;9.18;;;19.40;32.50;;;;;;4968111;28;20306;-58
2022/03/23 09:43:02;;;;;;;31.88;9.55;;;19.40;33.00;;;;;;4972679;28;20780;-59
2022/03/23 09:48:04;;;;;;;35.08;8.25;;;19.40;32.90;;;;;;4986586;28;20502;-59
2022/03/23 09:50:32;;;;;;;35.85;8.77;;;19.30;33.00;;;;;;4972026;28;20118;-59
2022/03/23 09:52:59;;;;;;;31.10;8.68;;;19.30;32.50;;;;;;4959498;28;20083;-60
2022/03/23 09:55:25;;;;;;;26.77;8.55;;;19.30;32.90;;;;;;4956696;28;20570;-59
2022/03/23 09:57:56;;;;;;;32.15;8.45;;;19.20;33.10;;;;;;4970938;28;20115;-58
2022/03/23 10:00:27;;;;;;;31.50;8.73;;;19.20;34.30;;;;;;4969955;28;20126;-60
2022/03/23 10:02:57;;;;;;;37.08;9.52;;;19.20;33.60;;;;;;4953958;28;20505;-59
2022/03/23 10:05:42;;;;;;;29.95;8.25;;;19.10;32.70;;;;;;4989349;28;20082;-58
2022/03/23 10:08:36;;;;;;;27.25;8.68;;;19.10;32.80;;;;;;4981555;28;20114;-61
2022/03/23 10:11:40;;;;;;;36.78;8.95;;;19.00;32.80;;;;;;4987759;28;20789;-61
2022/03/23 10:14:43;;;;;;;25.33;8.63;;;19.00;33.90;;;;;;4986388;28;20442;-59
2022/03/23 10:17:28;;;;;;;35.35;8.73;;;19.00;33.50;;;;;;4986920;28;20073;-59
2022/03/23 10:19:55;;;;;;;41.22;8.63;;;19.00;33.40;;;;;;4986563;28;20534;-60
2022/03/23 10:22:27;;;;;;;32.33;9.30;;;18.90;33.40;;;;;;4969119;28;20156;-59
2022/03/23 10:24:54;;;;;;;34.63;8.65;;;18.90;34.10;;;;;;4982270;28;20117;-60
2022/03/23 10:27:23;;;;;;;34.83;9.30;;;18.80;33.70;;;;;;4968074;28;20573;-61
2022/03/23 10:29:54;;;;;;;42.00;9.50;;;18.80;33.30;;;;;;4972477;28;20096;-59
2022/03/23 10:32:21;;;;;;;38.88;8.30;;;18.80;33.30;;;;;;4958271;28;20075;-61
2022/03/23 10:34:54;;;;;;;34.88;7.78;;;18.80;33.20;;;;;;4968968;28;20513;-57
2022/03/23 10:37:31;;;;;;;34.92;7.97;;;18.80;33.10;;;;;;4967099;28;20173;-60
2022/03/23 10:40:01;;;;;;;33.72;8.50;;;18.80;34.00;;;;;;4968779;28;20070;-59
2022/03/23 10:42:32;;;;;;;31.23;8.75;;;18.80;33.60;;;;;;4956761;28;20213;-62
2022/03/23 10:45:20;;;;;;;30.67;9.27;;;18.70;33.20;;;;;;4958201;28;20531;-58
2022/03/23 10:47:49;;;;;;;28.50;7.65;;;18.70;34.10;;;;;;4965202;28;20095;-62
2022/03/23 10:50:17;;;;;;;34.63;8.50;;;18.70;34.00;;;;;;4983794;28;20431;-58
2022/03/23 10:53:02;;;;;;;34.03;8.13;;;18.70;34.00;;;;;;4970926;28;20170;-58
2022/03/23 10:55:32;;;;;;;29.58;7.43;;;18.60;34.30;;;;;;4967463;28;20078;-57
2022/03/23 10:58:01;;;;;;;26.15;6.28;;;18.50;34.70;;;;;;4984808;28;20114;-59
2022/03/23 11:00:35;;;;;;;37.75;7.60;;;18.50;35.50;;;;;;4982414;28;20078;-59
2022/03/23 11:03:04;;;;;;;29.92;6.53;;;18.40;35.10;;;;;;4958751;28;20144;-58
2022/03/23 11:05:36;;;;;;;32.63;7.15;;;18.40;34.90;;;;;;4972647;28;20544;-60
2022/03/23 11:08:09;;;;;;;32.85;6.53;;;18.30;34.80;;;;;;4971069;28;20105;-59
2022/03/23 11:16:17;;;;;;;26.20;6.22;;;18.30;35.00;;;;;;4985563;28;20098;-61
2022/03/23 11:18:45;;;;;;;20.25;6.75;;;18.30;34.90;;;;;;4968359;28;20079;-59
2022/03/23 11:21:12;;;;;;;16.08;5.60;;;18.30;34.70;;;;;;4955522;28;20098;-58
2022/03/23 11:23:39;;;;;;;22.10;5.72;;;18.30;34.70;;;;;;4971202;28;20177;-58
2022/03/23 11:26:07;;;;;;;29.02;5.93;;;18.30;34.50;;;;;;4954786;28;20863;-61
2022/03/23 11:28:43;;;;;;;14.60;5.25;;;18.40;34.40;;;;;;4976656;28;20178;-58
2022/03/23 11:31:13;;;;;;;18.90;5.47;;;18.40;34.90;;;;;;4972467;28;20067;-60
2022/03/23 11:33:41;;;;;;;15.27;5.00;;;18.40;34.70;;;;;;4989053;28;20190;-59
2022/03/23 11:36:11;;;;;;;23.67;4.78;;;18.30;34.70;;;;;;4966633;28;20077;-59
2022/03/23 11:38:39;;;;;;;23.75;5.43;;;18.30;35.10;;;;;;4983308;28;20183;-60
2022/03/23 11:41:07;;;;;;;21.08;5.45;;;18.30;34.50;;;;;;4954413;28;20551;-58
2022/03/23 11:43:34;;;;;;;19.95;5.30;;;18.30;34.30;;;;;;4965410;28;20210;-58
2022/03/23 11:46:02;;;;;;;22.92;5.75;;;18.30;34.20;;;;;;4970053;28;20079;-60
2022/03/23 11:48:40;;;;;;;18.60;5.15;;;18.20;34.60;;;;;;4987053;28;20093;-58
2022/03/23 11:51:18;;;;;;;21.67;5.90;;;18.30;34.50;;;;;;4986679;28;20086;-58
2022/03/23 11:54:03;;;;;;;22.13;5.18;;;18.30;35.60;;;;;;4956613;28;20457;-61
2022/03/23 11:56:58;;;;;;;20.30;5.18;;;18.30;35.40;;;;;;4985291;28;20160;-62
2022/03/23 11:59:29;;;;;;;21.00;6.32;;;18.20;35.10;;;;;;4982270;28;20594;-60
2022/03/23 12:01:57;;;;;;;21.98;6.20;;;18.20;35.40;;;;;;4966730;28;20112;-59
2022/03/23 12:04:28;;;;;;;18.45;5.57;;;18.10;36.00;;;;;;4969991;28;20182;-60
2022/03/23 12:07:04;;;;;;;18.70;5.10;;;18.10;36.40;;;;;;4984410;28;20086;-60
2022/03/23 12:09:36;;;;;;;21.35;5.95;;;18.10;36.30;;;;;;4980747;28;20768;-60
2022/03/23 12:12:11;;;;;;;20.92;5.97;;;18.00;35.20;;;;;;4954725;28;21573;-59
2022/03/23 12:14:39;;;;;;;19.98;5.47;;;17.90;35.30;;;;;;4968546;28;20549;-59
2022/03/23 12:17:10;;;;;;;32.17;5.55;;;17.90;35.00;;;;;;4986908;28;20107;-59
2022/03/23 12:19:57;;;;;;;29.35;5.75;;;17.90;36.70;;;;;;4954510;28;20119;-60
2022/03/23 12:22:56;;;;;;;19.05;5.38;;;17.90;36.40;;;;;;4967213;28;20078;-59
2022/03/23 12:25:37;;;;;;;29.10;6.90;;;17.90;36.00;;;;;;4979231;28;20083;-61
2022/03/23 12:28:46;;;;;;;32.80;7.50;;;17.80;35.50;;;;;;4983838;28;20114;-59
2022/03/23 12:31:15;;;;;;;38.50;8.32;;;17.80;35.30;;;;;;4984560;28;20173;-59
2022/03/23 12:34:08;;;;;;;36.72;8.55;;;17.80;36.10;;;;;;4966488;28;20085;-62
2022/03/23 12:36:58;;;;;;;36.97;7.95;;;17.70;36.40;;;;;;4954343;28;20090;-59
2022/03/23 12:39:31;;;;;;;32.05;8.13;;;17.80;36.10;;;;;;4983396;28;20071;-59
2022/03/23 12:42:16;;;;;;;30.80;7.20;;;17.70;36.80;;;;;;4969753;28;20070;-59
2022/03/23 12:44:47;;;;;;;32.67;6.20;;;17.70;36.40;;;;;;4972937;28;20170;-58
2022/03/23 12:47:18;;;;;;;24.88;5.85;;;17.60;36.60;;;;;;4987731;28;20078;-60
2022/03/23 12:58:24;;;;;;;23.67;5.97;;;17.30;38.20;;;;;;4971907;28;20259;-61
2022/03/23 13:00:53;;;;;;;20.90;5.93;;;17.30;37.70;;;;;;4965280;28;20076;-60
2022/03/23 13:03:20;;;;;;;18.20;5.30;;;17.30;37.70;;;;;;4978172;28;20075;-60
2022/03/23 13:05:57;;;;;;;;;;;17.30;38.50;;;;;;4979760;28;20557;-59
2022/03/23 13:08:30;;;;;;;31.17;5.70;;;17.30;38.30;;;;;;4979807;28;20030;-58
2022/03/23 13:11:00;;;;;;;23.40;6.30;;;17.20;38.00;;;;;;4981795;28;20076;-57
2022/03/23 13:13:29;;;;;;;25.98;6.45;;;17.10;38.80;;;;;;4972042;28;20068;-60
2022/03/23 13:15:56;;;;;;;18.27;6.05;;;17.00;37.90;;;;;;4965812;28;20080;-59